Time;durP1;ratioP1;P1;durP2;ratioP2;P2;SDS_P1;SDS_P2;PMS_P1;PMS_P2;Temp;Humidity;BMP_temperature;BMP_pressure;BME280_temperature;BME280_humidity;BME280_pressure;Samples;Min_cycle;Max_cycle;Signal;HPM_P1;HPM_P2
2021/12/14 00:01:38;;;;;;;4.67;4.17;;;3.20;95.00;;;2.79;67.07;95337.28;5081200;28;20470;-57
2021/12/14 00:04:07;;;;;;;6.73;4.70;;;3.10;94.90;;;2.73;66.94;95333.25;5075516;28;20455;-59
2021/12/14 00:06:35;;;;;;;5.20;4.30;;;3.00;95.00;;;2.69;67.62;95339.53;5079706;28;20467;-55
2021/12/14 00:09:03;;;;;;;3.43;3.13;;;3.00;95.10;;;2.72;67.61;95341.97;5077401;28;20482;-59
2021/12/14 00:11:50;;;;;;;4.40;3.87;;;3.00;95.10;;;2.73;67.56;95346.25;5079196;28;20919;-57
2021/12/14 00:15:01;;;;;;;4.67;4.27;;;3.00;95.20;;;2.72;66.87;95343.72;5081776;28;20460;-58
2021/12/14 00:17:18;;;;;;;3.73;3.53;;;3.00;95.20;;;2.68;67.09;95338.69;5078432;28;20477;-56
2021/12/14 00:19:45;;;;;;;4.10;3.70;;;3.00;95.20;;;2.64;67.41;95341.53;5079428;28;20499;-59
2021/12/14 00:22:25;;;;;;;4.87;4.40;;;2.90;95.10;;;2.59;66.88;95344.38;5077959;28;20470;-58
2021/12/14 00:24:51;;;;;;;4.80;4.40;;;2.90;95.20;;;2.54;67.98;95340.31;5075784;28;20439;-58
2021/12/14 00:27:21;;;;;;;7.10;3.80;;;2.80;95.10;;;2.50;68.01;95339.66;5075269;28;20473;-60
2021/12/14 00:29:52;;;;;;;3.53;3.23;;;2.80;95.10;;;2.47;67.74;95351.03;5076552;28;20481;-58
2021/12/14 00:32:23;;;;;;;5.43;4.30;;;2.80;95.30;;;2.43;67.74;95339.16;5076427;28;20477;-56
2021/12/14 00:34:57;;;;;;;6.60;4.67;;;2.80;95.30;;;2.44;67.75;95343.41;5077096;28;20442;-58
2021/12/14 00:37:27;;;;;;;6.30;4.93;;;2.70;95.40;;;2.49;68.36;95346.63;5085479;28;20553;-59
2021/12/14 00:39:55;;;;;;;4.50;4.13;;;2.80;95.50;;;2.51;68.38;95349.97;5082503;28;20836;-59
2021/12/14 00:42:23;;;;;;;6.13;3.90;;;2.80;95.50;;;2.58;67.93;95347.06;5076412;28;20960;-55
2021/12/14 00:44:51;;;;;;;4.50;4.03;;;2.80;95.60;;;2.61;68.32;95357.28;5077817;28;20543;-58
2021/12/14 00:47:18;;;;;;;5.17;4.13;;;2.90;95.60;;;2.63;68.31;95351.09;5077646;28;20479;-56
2021/12/14 00:49:45;;;;;;;6.50;4.00;;;2.90;95.60;;;2.64;67.77;95355.34;5080698;28;20482;-58
2021/12/14 00:52:12;;;;;;;4.87;3.43;;;2.90;95.50;;;2.66;68.11;95356.09;5075469;28;20474;-56
2021/12/14 00:54:40;;;;;;;4.23;3.87;;;2.90;95.50;;;2.66;67.67;95353.50;5074321;28;20469;-56
2021/12/14 00:57:08;;;;;;;4.27;3.50;;;2.90;95.40;;;2.68;67.91;95354.28;5075189;28;20466;-57
2021/12/14 00:59:37;;;;;;;3.53;3.27;;;2.90;95.40;;;2.70;67.21;95351.59;5082524;28;20974;-56
2021/12/14 01:02:09;;;;;;;3.53;3.20;;;3.00;95.40;;;2.71;67.29;95348.06;5082709;28;20470;-57
2021/12/14 01:04:40;;;;;;;5.03;4.27;;;3.00;95.40;;;2.69;67.72;95349.91;5081592;28;20529;-57
2021/12/14 01:07:07;;;;;;;4.80;3.77;;;3.00;95.40;;;2.69;67.87;95342.13;5080839;28;20484;-56
2021/12/14 01:09:38;;;;;;;4.70;4.20;;;3.00;95.50;;;2.71;68.28;95347.25;5076988;28;20487;-59
2021/12/14 01:12:13;;;;;;;6.10;4.17;;;3.00;95.50;;;2.72;67.61;95349.75;5079596;28;21005;-60
2021/12/14 01:14:47;;;;;;;3.77;3.47;;;3.00;95.40;;;2.75;67.88;95347.00;5075955;28;20814;-57
2021/12/14 01:17:28;;;;;;;3.90;3.60;;;3.00;95.40;;;2.74;68.01;95358.28;5078637;28;21143;-56
2021/12/14 01:19:58;;;;;;;3.73;3.40;;;3.00;95.40;;;2.76;67.83;95356.47;5080509;28;20461;-57
2021/12/14 01:22:39;;;;;;;4.50;4.10;;;3.00;95.50;;;2.80;67.42;95359.75;5077130;28;20471;-56
2021/12/14 01:25:13;;;;;;;4.23;3.43;;;3.10;95.60;;;2.84;67.76;95362.09;5079008;28;20443;-58
2021/12/14 01:27:50;;;;;;;2.90;2.70;;;3.10;95.60;;;2.90;67.91;95353.16;5078179;28;20502;-59
2021/12/14 01:30:27;;;;;;;4.50;4.00;;;3.10;95.60;;;2.93;68.14;95353.00;5078543;28;20473;-59
2021/12/14 01:32:56;;;;;;;3.27;3.07;;;3.20;95.50;;;2.97;67.98;95348.47;5075624;28;20474;-55
2021/12/14 01:35:28;;;;;;;4.27;3.80;;;3.20;95.50;;;2.99;67.54;95352.66;5083489;28;21009;-56
2021/12/14 01:38:05;;;;;;;4.43;3.80;;;3.20;95.20;;;3.00;67.49;95354.31;5086209;28;20450;-59
2021/12/14 01:40:53;;;;;;;3.50;3.30;;;3.30;95.30;;;2.97;67.14;95346.69;5082766;28;20446;-57
2021/12/14 01:43:22;;;;;;;3.50;3.30;;;3.20;95.20;;;2.96;67.83;95346.78;5084202;28;20442;-58
2021/12/14 01:45:50;;;;;;;4.07;3.67;;;3.20;95.30;;;2.97;67.59;95346.69;5085016;28;20469;-58
2021/12/14 01:48:18;;;;;;;4.40;4.03;;;3.20;95.30;;;2.98;67.54;95350.16;5084199;28;20442;-56
2021/12/14 01:50:47;;;;;;;3.90;3.60;;;3.20;95.30;;;2.99;67.33;95341.41;5079290;28;20521;-59
2021/12/14 01:53:15;;;;;;;4.00;3.20;;;3.20;95.30;;;2.98;67.21;95340.59;5082059;28;20445;-59
2021/12/14 01:55:50;;;;;;;4.17;3.60;;;3.30;95.30;;;2.99;67.27;95349.22;5081753;28;20535;-58
2021/12/14 01:58:18;;;;;;;3.90;3.60;;;3.20;95.30;;;3.00;67.87;95346.53;5082256;28;20681;-58
2021/12/14 02:00:50;;;;;;;4.10;3.70;;;3.30;95.30;;;3.05;67.48;95356.69;5083160;28;20930;-58
2021/12/14 02:03:23;;;;;;;4.40;3.93;;;3.30;95.30;;;3.04;66.97;95352.44;5081342;28;20438;-57
2021/12/14 02:05:51;;;;;;;3.43;3.23;;;3.30;95.30;;;3.00;67.43;95349.13;5082778;28;21082;-56
2021/12/14 02:08:20;;;;;;;4.27;3.57;;;3.30;95.20;;;2.98;67.38;95345.78;5082634;28;20977;-57
2021/12/14 02:10:51;;;;;;;3.33;3.13;;;3.20;95.20;;;2.97;67.19;95340.66;5080683;28;20490;-57
2021/12/14 02:13:24;;;;;;;3.60;3.37;;;3.20;95.30;;;2.96;67.61;95346.78;5082358;28;20546;-58
2021/12/14 02:15:51;;;;;;;3.10;2.90;;;3.20;95.20;;;2.90;67.61;95337.56;5082387;28;20475;-56
2021/12/14 02:18:23;;;;;;;3.83;3.40;;;3.20;95.10;;;2.85;67.56;95345.59;5086152;28;20454;-58
2021/12/14 02:20:54;;;;;;;4.13;3.77;;;3.10;95.20;;;2.85;67.95;95343.00;5082488;28;20475;-58
2021/12/14 02:23:21;;;;;;;4.17;3.77;;;3.10;95.30;;;2.85;67.20;95345.59;5087805;28;20934;-56
2021/12/14 02:25:49;;;;;;;3.70;3.50;;;3.10;95.30;;;2.87;67.35;95343.75;5082829;28;21052;-56
2021/12/14 02:28:18;;;;;;;3.60;3.40;;;3.10;95.80;;;2.89;67.15;95350.63;5082070;28;20465;-56
2021/12/14 02:30:46;;;;;;;4.73;4.30;;;3.10;95.40;;;2.92;67.89;95350.47;5079177;28;20568;-56
2021/12/14 02:33:19;;;;;;;3.40;3.20;;;3.20;95.50;;;2.96;67.25;95355.44;5080654;28;20534;-56
2021/12/14 02:35:46;;;;;;;4.67;3.50;;;3.20;95.50;;;3.00;67.42;95353.50;5080403;28;20900;-58
2021/12/14 02:38:17;;;;;;;5.67;4.47;;;3.20;95.40;;;3.04;67.13;95355.84;5086728;28;20495;-57
2021/12/14 02:40:57;;;;;;;4.20;3.90;;;3.30;95.50;;;3.07;67.62;95360.06;5079921;28;20470;-57
2021/12/14 02:43:28;;;;;;;4.80;4.40;;;3.30;95.40;;;3.12;67.72;95352.00;5078256;28;20520;-58
2021/12/14 02:46:05;;;;;;;6.30;3.60;;;3.40;95.40;;;3.14;67.24;95351.00;5076354;28;20466;-56
2021/12/14 02:48:32;;;;;;;5.73;4.57;;;3.40;95.40;;;3.15;67.03;95355.28;5083750;28;20511;-55
2021/12/14 02:51:10;;;;;;;4.30;3.90;;;3.40;95.30;;;3.18;67.25;95357.72;5078384;28;20486;-55
2021/12/14 02:53:40;;;;;;;7.83;4.73;;;3.40;95.30;;;3.20;67.49;95355.84;5076008;28;20519;-57
2021/12/14 02:56:11;;;;;;;3.40;3.10;;;3.50;95.30;;;3.19;66.60;95359.41;5077526;28;20474;-57
2021/12/14 02:58:38;;;;;;;3.70;3.43;;;3.50;95.20;;;3.17;67.56;95361.22;5078833;28;21007;-59
2021/12/14 03:01:06;;;;;;;4.30;3.63;;;3.50;95.10;;;3.16;67.46;95363.91;5080934;28;20532;-57
2021/12/14 03:03:33;;;;;;;3.63;3.30;;;3.50;95.20;;;3.17;67.13;95365.59;5082109;28;20974;-57
2021/12/14 03:06:00;;;;;;;3.30;3.10;;;3.40;95.20;;;3.16;67.35;95358.69;5081665;28;20478;-59
2021/12/14 03:08:32;;;;;;;4.67;3.93;;;3.40;95.20;;;3.15;67.20;95368.28;5073987;28;20450;-58
2021/12/14 03:11:10;;;;;;;3.90;3.60;;;3.40;95.30;;;3.16;67.70;95362.16;5079059;28;20521;-57
2021/12/14 03:13:39;;;;;;;3.73;3.43;;;3.40;95.20;;;3.15;67.52;95368.28;5077697;28;20489;-58
2021/12/14 03:16:10;;;;;;;3.93;3.73;;;3.40;95.20;;;3.15;67.71;95368.28;5077533;28;20473;-58
2021/12/14 03:18:39;;;;;;;4.17;3.87;;;3.40;95.20;;;3.11;67.34;95364.16;5078844;28;20441;-58
2021/12/14 03:21:10;;;;;;;3.60;3.40;;;3.40;95.10;;;3.07;67.36;95367.84;5079246;28;20845;-59
2021/12/14 03:23:39;;;;;;;3.30;3.07;;;3.40;95.20;;;3.03;66.89;95363.72;5081688;28;20450;-56
2021/12/14 03:26:09;;;;;;;4.00;3.70;;;3.30;95.20;;;3.00;67.70;95371.69;5080627;28;20548;-56
2021/12/14 03:28:37;;;;;;;4.10;3.70;;;3.30;95.20;;;2.94;67.81;95357.25;5081014;28;20449;-56
2021/12/14 03:31:20;;;;;;;4.73;4.33;;;3.20;95.20;;;2.92;67.53;95373.84;5078244;28;20612;-57
2021/12/14 03:33:54;;;;;;;3.53;3.30;;;3.20;95.20;;;2.87;67.71;95366.31;5075186;28;21033;-57
2021/12/14 03:36:24;;;;;;;12.00;3.80;;;3.10;95.30;;;2.86;67.82;95365.44;5078004;28;20488;-56
2021/12/14 03:38:54;;;;;;;5.90;5.20;;;3.10;95.40;;;2.86;67.47;95362.84;5075978;28;21040;-59
2021/12/14 03:41:25;;;;;;;5.10;4.63;;;3.10;95.40;;;2.85;67.23;95366.38;5079204;28;20479;-59
2021/12/14 03:43:58;;;;;;;4.10;3.80;;;3.10;95.50;;;2.84;67.77;95366.47;5082661;28;20458;-56
2021/12/14 03:46:27;;;;;;;3.63;3.40;;;3.10;95.50;;;2.85;68.12;95379.38;5079021;28;20467;-56
2021/12/14 03:48:54;;;;;;;4.93;4.03;;;3.10;95.60;;;2.82;68.59;95365.69;5080700;28;20454;-56
2021/12/14 03:51:22;;;;;;;4.20;3.87;;;3.10;95.90;;;2.82;68.34;95369.16;5076834;28;20487;-59
2021/12/14 03:53:50;;;;;;;5.37;4.83;;;3.10;95.80;;;2.80;68.30;95372.72;5081138;28;20516;-59
2021/12/14 03:56:18;;;;;;;3.73;3.47;;;3.10;95.70;;;2.79;68.48;95371.03;5079879;28;20527;-58
2021/12/14 03:58:47;;;;;;;4.60;4.23;;;3.10;95.90;;;2.79;69.27;95371.91;5078470;28;20451;-60
2021/12/14 04:01:17;;;;;;;5.63;4.60;;;3.00;96.10;;;2.80;69.09;95373.56;5079103;28;20545;-56
2021/12/14 04:03:45;;;;;;;4.73;4.33;;;3.10;96.10;;;2.81;68.60;95375.25;5076240;28;20465;-57
2021/12/14 04:06:13;;;;;;;6.00;4.30;;;3.10;96.00;;;2.81;68.76;95374.44;5081647;28;21105;-57
2021/12/14 04:08:40;;;;;;;6.03;5.00;;;3.10;96.10;;;2.81;69.00;95383.03;5078033;28;20451;-56
2021/12/14 04:11:09;;;;;;;5.33;4.83;;;3.10;96.20;;;2.82;68.82;95381.28;5077742;28;20505;-58
2021/12/14 04:13:40;;;;;;;4.23;3.90;;;3.10;96.10;;;2.81;68.24;95390.00;5083052;28;20511;-58
2021/12/14 04:16:09;;;;;;;5.83;4.13;;;3.10;96.10;;;2.78;68.11;95391.00;5079633;28;20482;-59
2021/12/14 04:18:36;;;;;;;5.57;5.07;;;3.10;96.10;;;2.74;68.71;95381.69;5077094;28;20454;-56
2021/12/14 04:21:04;;;;;;;4.30;4.00;;;3.00;96.10;;;2.71;69.10;95384.44;5077071;28;20474;-58
2021/12/14 04:23:35;;;;;;;8.47;5.30;;;3.00;96.20;;;2.71;69.31;95383.59;5081337;28;20453;-57
2021/12/14 04:26:03;;;;;;;4.50;4.20;;;3.00;96.30;;;2.72;69.66;95386.13;5076382;28;20466;-58
2021/12/14 04:28:32;;;;;;;6.37;4.43;;;3.00;96.40;;;2.76;68.65;95402.38;5072145;28;20454;-59
2021/12/14 04:30:59;;;;;;;5.43;5.00;;;3.00;96.50;;;2.78;69.56;95396.19;5081131;28;20569;-58
2021/12/14 04:33:31;;;;;;;4.57;4.20;;;3.00;96.50;;;2.82;69.59;95392.53;5078968;28;20450;-59
2021/12/14 04:35:59;;;;;;;5.03;4.53;;;3.10;96.70;;;2.86;69.43;95401.00;5079687;28;20520;-60
2021/12/14 04:38:29;;;;;;;5.37;4.20;;;3.10;96.70;;;2.90;69.85;95397.31;5085423;28;20480;-58
2021/12/14 04:52:16;;;;;;;5.17;4.77;;;3.30;96.50;;;3.03;68.96;95400.09;5067287;28;20485;-59
2021/12/14 04:54:46;;;;;;;4.23;3.87;;;3.30;96.50;;;3.03;69.40;95400.09;5082929;28;20492;-58
2021/12/14 04:57:21;;;;;;;6.13;4.73;;;3.30;96.50;;;3.05;69.10;95406.06;5080831;28;20466;-58
2021/12/14 04:59:49;;;;;;;5.67;4.80;;;3.30;96.40;;;3.05;69.19;95404.31;5078334;28;20503;-56
2021/12/14 05:02:20;;;;;;;5.60;4.97;;;3.30;96.50;;;3.07;68.96;95406.84;5078481;28;20489;-57
2021/12/14 05:04:50;;;;;;;5.10;4.63;;;3.40;96.50;;;3.09;68.87;95399.78;5081199;28;20450;-59
2021/12/14 05:10:20;;;;;;;6.23;5.03;;;3.40;97.00;;;3.15;69.87;95411.63;5026439;28;20494;-56
2021/12/14 05:12:48;;;;;;;4.87;4.57;;;3.40;97.00;;;3.18;69.42;95408.88;5029592;28;20429;-57
2021/12/14 05:15:16;;;;;;;8.70;5.53;;;3.40;96.70;;;3.18;68.92;95407.09;5049710;28;20447;-58
2021/12/14 05:17:45;;;;;;;6.10;5.50;;;3.40;96.40;;;3.19;68.76;95416.59;5080885;28;20450;-58
2021/12/14 05:20:14;;;;;;;7.07;5.80;;;3.50;96.40;;;3.19;68.46;95410.53;5080110;28;20453;-59
2021/12/14 05:22:44;;;;;;;6.57;5.03;;;3.50;96.30;;;3.18;68.06;95414.88;5080623;28;21021;-59
2021/12/14 05:25:16;;;;;;;5.73;5.20;;;3.40;96.20;;;3.19;68.62;95413.13;5084156;28;20458;-58
2021/12/14 05:27:46;;;;;;;4.80;4.40;;;3.50;96.20;;;3.14;68.02;95421.16;5082581;28;20454;-57
2021/12/14 05:30:22;;;;;;;8.83;5.90;;;3.40;96.00;;;3.13;68.75;95421.25;5080799;28;20450;-55
2021/12/14 05:32:49;;;;;;;6.23;5.63;;;3.40;96.10;;;3.14;68.82;95417.72;5077712;28;20904;-58
2021/12/14 05:35:20;;;;;;;5.50;4.83;;;3.40;96.20;;;3.12;68.18;95422.19;5076583;28;20982;-59
2021/12/14 05:37:51;;;;;;;6.30;5.53;;;3.40;96.00;;;3.08;68.05;95415.47;5076498;28;20845;-58
2021/12/14 05:40:36;;;;;;;8.07;5.00;;;3.40;96.00;;;3.05;68.56;95424.25;5076345;28;20442;-57
2021/12/14 05:43:07;;;;;;;7.70;5.67;;;3.30;96.00;;;3.06;68.90;95420.72;5079193;28;20441;-57
2021/12/14 05:45:38;;;;;;;6.83;4.53;;;3.30;96.10;;;3.05;68.86;95419.91;5082580;28;20850;-58
2021/12/14 05:48:06;;;;;;;5.83;5.20;;;3.30;96.10;;;3.03;68.82;95415.69;5081210;28;20457;-58
2021/12/14 05:50:37;;;;;;;5.63;5.13;;;3.30;96.00;;;3.00;68.30;95421.06;5084663;28;21011;-57
2021/12/14 05:53:05;;;;;;;8.40;5.20;;;3.30;96.00;;;2.98;68.34;95420.31;5083553;28;20514;-58
2021/12/14 05:55:36;;;;;;;5.40;4.30;;;3.20;95.90;;;2.94;67.77;95422.19;5078297;28;20488;-60
2021/12/14 05:58:04;;;;;;;8.70;5.40;;;3.20;95.90;;;2.93;68.48;95420.53;5081119;28;20458;-59
2021/12/14 06:00:31;;;;;;;9.70;5.90;;;3.20;96.10;;;2.97;68.95;95434.22;5077041;28;20499;-59
2021/12/14 06:02:59;;;;;;;8.60;5.77;;;3.20;96.10;;;2.94;68.02;95443.00;5077374;28;20446;-57
2021/12/14 06:05:29;;;;;;;6.43;5.43;;;3.20;95.90;;;2.92;67.91;95442.25;5083482;28;20449;-58
2021/12/14 06:07:58;;;;;;;6.57;5.00;;;3.20;95.90;;;2.94;67.94;95440.38;5082057;28;20796;-56
2021/12/14 06:10:26;;;;;;;6.37;5.07;;;3.20;96.00;;;2.93;68.07;95438.72;5084907;28;20872;-56
2021/12/14 06:12:54;;;;;;;7.27;5.13;;;3.20;95.90;;;2.90;68.58;95446.69;5084353;28;20455;-55
2021/12/14 06:15:26;;;;;;;8.23;4.77;;;3.20;95.80;;;2.93;68.46;95440.47;5085835;28;20970;-58
2021/12/14 06:17:54;;;;;;;6.80;5.43;;;3.20;95.90;;;2.93;68.17;95450.88;5086029;28;20445;-58
2021/12/14 06:20:23;;;;;;;6.90;5.43;;;3.20;95.90;;;2.93;68.44;95446.53;5076901;28;20977;-56
2021/12/14 06:22:52;;;;;;;7.13;5.77;;;3.20;95.90;;;2.93;68.21;95446.53;5084133;28;20458;-58
2021/12/14 06:25:25;;;;;;;6.37;5.70;;;3.20;95.90;;;2.94;67.74;95448.19;5076022;28;20458;-58
2021/12/14 06:27:55;;;;;;;7.47;5.53;;;3.20;95.90;;;2.94;67.73;95449.97;5076767;28;20442;-57
2021/12/14 06:30:24;;;;;;;8.10;6.10;;;3.20;95.80;;;2.93;68.10;95446.53;5084065;28;20523;-56
2021/12/14 06:32:54;;;;;;;7.40;5.10;;;3.20;95.80;;;2.93;68.37;95448.25;5080500;28;20528;-58
2021/12/14 06:35:24;;;;;;;5.93;5.43;;;3.20;95.90;;;2.96;67.96;95448.09;5084273;28;20447;-59
2021/12/14 06:38:23;;;;;;;6.90;6.20;;;3.20;96.00;;;2.98;68.58;95462.72;5085523;28;20477;-56
2021/12/14 06:40:58;;;;;;;5.93;5.43;;;3.20;95.90;;;3.02;68.41;95460.78;5082862;28;20466;-60
2021/12/14 06:43:27;;;;;;;5.53;5.00;;;3.30;96.00;;;3.05;68.16;95463.22;5079935;28;20513;-58
2021/12/14 06:45:57;;;;;;;6.73;5.70;;;3.30;96.00;;;3.10;68.70;95465.59;5085103;28;20852;-57
2021/12/14 06:48:27;;;;;;;5.13;4.53;;;3.30;95.90;;;3.12;67.72;95463.78;5076037;28;20997;-59
2021/12/14 06:50:58;;;;;;;5.27;4.77;;;3.40;95.80;;;3.13;68.17;95473.22;5079641;28;20488;-58
2021/12/14 06:53:25;;;;;;;6.40;5.03;;;3.40;96.00;;;3.13;68.13;95479.28;5082355;28;20447;-56
2021/12/14 06:55:56;;;;;;;8.03;5.03;;;3.40;95.70;;;3.12;67.56;95475.00;5081587;28;20474;-57
2021/12/14 06:58:25;;;;;;;6.20;5.40;;;3.40;95.60;;;3.13;67.76;95481.88;5080490;28;20947;-57
2021/12/14 07:00:54;;;;;;;5.70;5.20;;;3.40;95.70;;;3.14;67.66;95482.72;5082370;28;20896;-57
2021/12/14 07:03:22;;;;;;;7.60;5.40;;;3.40;95.60;;;3.16;68.29;95486.06;5080220;28;20447;-57
2021/12/14 07:05:50;;;;;;;5.10;4.57;;;3.40;95.60;;;3.18;68.32;95486.84;5080865;28;20459;-58
2021/12/14 07:08:23;;;;;;;6.50;5.70;;;3.40;95.70;;;3.21;68.32;95486.69;5078709;28;20451;-59
2021/12/14 07:10:50;;;;;;;6.33;5.10;;;3.40;95.70;;;3.25;67.52;95489.94;5079519;28;21101;-59
2021/12/14 07:13:24;;;;;;;6.30;5.00;;;3.50;95.70;;;3.28;67.75;95492.38;5080392;28;20519;-59
2021/12/14 07:15:52;;;;;;;5.90;5.37;;;3.50;95.70;;;3.31;67.92;95487.03;5075234;28;20474;-59
2021/12/14 07:18:25;;;;;;;7.43;6.37;;;3.60;95.70;;;3.35;67.37;95488.56;5078248;28;20514;-56
2021/12/14 07:20:52;;;;;;;11.40;7.80;;;3.60;95.70;;;3.37;67.73;95497.09;5081860;28;20854;-58
2021/12/14 07:23:27;;;;;;;10.90;7.43;;;3.60;95.60;;;3.39;68.49;95495.25;5081570;28;20450;-58
2021/12/14 07:25:58;;;;;;;10.70;7.57;;;3.60;95.70;;;3.43;67.55;95504.59;5080486;28;20556;-58
2021/12/14 07:28:29;;;;;;;11.70;7.57;;;3.70;95.70;;;3.43;68.06;95502.00;5082521;28;20435;-60
2021/12/14 07:30:59;;;;;;;11.90;6.70;;;3.70;95.70;;;3.46;67.99;95507.03;5083383;28;20466;-59
2021/12/14 07:33:28;;;;;;;7.07;6.40;;;3.70;95.80;;;3.47;67.90;95506.13;5073941;28;20450;-57
2021/12/14 07:35:56;;;;;;;11.60;7.10;;;3.70;95.90;;;3.51;67.99;95502.41;5074251;28;21013;-56
2021/12/14 07:38:40;;;;;;;10.30;7.37;;;3.80;95.90;;;3.50;67.76;95507.69;5077016;28;20839;-58
2021/12/14 07:41:19;;;;;;;12.03;7.13;;;3.80;96.20;;;3.48;68.26;95510.38;5076931;28;20973;-57
2021/12/14 07:43:56;;;;;;;10.50;7.20;;;3.70;95.70;;;3.44;68.68;95508.88;5079730;28;20438;-59
2021/12/14 07:46:31;;;;;;;10.07;6.77;;;3.70;96.00;;;3.37;67.72;95505.75;5081725;28;20463;-60
2021/12/14 07:49:01;;;;;;;8.57;7.00;;;3.70;95.80;;;3.32;68.48;95514.72;5082304;28;20434;-59
2021/12/14 07:51:30;;;;;;;10.90;6.43;;;3.60;95.90;;;3.29;68.34;95515.72;5079983;28;20493;-58
2021/12/14 07:54:02;;;;;;;9.63;6.53;;;3.60;96.20;;;3.27;68.47;95514.97;5084536;28;20950;-60
2021/12/14 07:56:37;;;;;;;10.67;8.50;;;3.50;95.90;;;3.23;68.95;95516.03;5082514;28;20848;-60
2021/12/14 07:59:17;;;;;;;14.03;9.10;;;3.50;96.20;;;3.23;69.21;95522.06;5074454;28;20784;-59
2021/12/14 08:01:44;;;;;;;12.53;9.87;;;3.50;96.60;;;3.30;68.87;95526.94;5073718;28;20469;-57
2021/12/14 08:04:12;;;;;;;15.93;9.23;;;3.50;96.70;;;3.31;68.48;95531.22;5075073;28;20463;-57
2021/12/14 08:06:52;;;;;;;13.67;8.63;;;3.60;96.60;;;3.35;68.95;95530.16;5076506;28;20463;-58
2021/12/14 08:09:34;;;;;;;15.93;10.40;;;3.60;96.70;;;3.42;69.56;95521.09;5079829;28;20471;-57
2021/12/14 08:12:02;;;;;;;12.87;8.07;;;3.60;96.80;;;3.50;68.74;95528.50;5083018;28;20497;-59
2021/12/14 08:14:32;;;;;;;10.87;8.20;;;3.70;96.80;;;3.52;69.50;95534.47;5077648;28;20958;-58
2021/12/14 08:17:03;;;;;;;11.70;6.93;;;3.80;96.60;;;3.53;69.00;95537.00;5083198;28;20466;-58
2021/12/14 08:19:35;;;;;;;9.90;8.50;;;3.80;96.50;;;3.52;68.92;95532.72;5076973;28;20560;-58
2021/12/14 08:22:08;;;;;;;7.87;7.00;;;3.80;96.70;;;3.56;69.09;95538.56;5076441;28;21044;-59
2021/12/14 08:24:36;;;;;;;11.20;8.30;;;3.80;96.80;;;3.58;69.12;95537.59;5079288;28;20446;-58
2021/12/14 08:27:04;;;;;;;10.07;8.30;;;3.80;96.80;;;3.64;69.29;95532.97;5073261;28;20463;-59
2021/12/14 08:29:34;;;;;;;13.57;7.00;;;3.90;96.90;;;3.69;69.54;95533.59;5083628;28;20454;-58
2021/12/14 08:32:08;;;;;;;17.53;7.17;;;3.90;97.10;;;3.79;69.14;95539.97;5077081;28;20559;-58
2021/12/14 08:34:41;;;;;;;10.60;7.77;;;4.00;96.90;;;3.86;69.45;95541.31;5081225;28;20469;-58
2021/12/14 08:37:11;;;;;;;15.40;9.90;;;4.10;97.00;;;3.92;69.03;95538.41;5079192;28;20480;-59
2021/12/14 08:39:46;;;;;;;17.10;12.63;;;4.20;96.80;;;3.98;69.24;95536.38;5079317;28;20923;-59
2021/12/14 08:42:17;;;;;;;10.27;8.67;;;4.20;96.60;;;4.01;68.95;95533.59;5079103;28;20477;-56
2021/12/14 08:44:53;;;;;;;16.07;8.03;;;4.30;96.70;;;4.07;68.72;95525.47;5077858;28;20450;-57
2021/12/14 08:47:28;;;;;;;14.90;8.10;;;4.30;96.70;;;4.09;68.81;95532.28;5078360;28;20467;-59
2021/12/14 08:49:58;;;;;;;17.53;9.20;;;4.30;96.60;;;4.11;68.66;95537.41;5079371;28;20834;-57
2021/12/14 08:52:26;;;;;;;11.53;8.57;;;4.30;96.50;;;4.14;68.87;95526.81;5076403;28;20498;-59
2021/12/14 08:54:53;;;;;;;9.40;7.17;;;4.40;96.60;;;4.19;68.77;95529.16;5079618;28;20449;-59
2021/12/14 08:57:24;;;;;;;10.80;7.00;;;4.40;96.60;;;4.22;68.68;95529.00;5079636;28;20545;-58
2021/12/14 08:59:55;;;;;;;11.40;7.53;;;4.50;96.50;;;4.23;68.53;95521.09;5080287;28;20456;-60
2021/12/14 09:02:23;;;;;;;18.63;8.53;;;4.50;96.50;;;4.24;68.67;95527.13;5080378;28;20985;-57
2021/12/14 09:04:55;;;;;;;14.10;8.43;;;4.50;96.50;;;4.24;68.72;95509.75;5078887;28;20450;-59
2021/12/14 09:07:24;;;;;;;10.23;8.23;;;4.50;96.50;;;4.25;68.61;95514.03;5075322;28;21048;-58
2021/12/14 09:09:52;;;;;;;17.53;7.87;;;4.50;96.60;;;4.30;68.76;95511.16;5082577;28;20459;-58
2021/12/14 09:12:24;;;;;;;14.57;8.60;;;4.50;96.80;;;4.34;68.80;95515.28;5074497;28;20489;-57
2021/12/14 09:14:55;;;;;;;15.83;9.10;;;4.60;96.80;;;4.41;68.92;95521.00;5078537;28;20495;-59
2021/12/14 09:17:23;;;;;;;13.47;7.90;;;4.60;96.80;;;4.46;68.93;95518.97;5080647;28;20469;-59
2021/12/14 09:19:54;;;;;;;10.43;8.27;;;4.70;96.80;;;4.48;68.35;95506.72;5074373;28;20447;-57
2021/12/14 09:22:27;;;;;;;24.10;9.00;;;4.70;96.40;;;4.45;68.20;95507.72;5078211;28;20474;-60
2021/12/14 09:24:56;;;;;;;13.93;8.73;;;4.70;96.30;;;4.45;68.63;95515.53;5079954;28;20450;-59
2021/12/14 09:27:33;;;;;;;12.53;8.90;;;4.70;96.40;;;4.43;68.39;95508.72;5080476;28;21003;-57
2021/12/14 09:30:02;;;;;;;10.37;8.50;;;4.70;96.30;;;4.42;68.48;95512.25;5079625;28;20809;-58
2021/12/14 09:32:29;;;;;;;17.30;9.83;;;4.60;96.40;;;4.42;68.62;95496.63;5081053;28;20494;-57
2021/12/14 09:34:57;;;;;;;17.23;9.13;;;4.70;96.50;;;4.46;68.80;95498.13;5071574;28;20446;-57
2021/12/14 09:37:25;;;;;;;15.70;9.70;;;4.70;96.60;;;4.50;68.60;95499.63;5069743;28;20467;-58
2021/12/14 09:39:59;;;;;;;20.80;10.60;;;4.70;96.60;;;4.54;68.43;95495.94;5075766;28;20812;-57
2021/12/14 09:42:30;;;;;;;15.90;10.30;;;4.80;96.40;;;4.52;68.27;95492.56;5074572;28;20465;-59
2021/12/14 09:45:00;;;;;;;15.40;10.37;;;4.80;96.30;;;4.55;68.23;95491.56;5075706;28;20454;-59
2021/12/14 09:47:31;;;;;;;20.03;11.37;;;4.80;96.40;;;4.58;68.48;95484.41;5077310;28;20466;-57
2021/12/14 09:50:00;;;;;;;18.20;10.17;;;4.80;96.40;;;4.62;68.38;95483.31;5079098;28;20706;-58
2021/12/14 09:52:30;;;;;;;10.50;8.70;;;4.90;96.50;;;4.61;68.07;95486.81;5079360;28;20827;-55
2021/12/14 09:54:58;;;;;;;13.40;9.60;;;4.80;96.10;;;4.59;67.92;95473.06;5079466;28;20438;-57
2021/12/14 09:57:27;;;;;;;18.27;9.90;;;4.80;96.30;;;4.59;68.08;95483.47;5074857;28;20474;-59
2021/12/14 09:59:55;;;;;;;14.57;10.60;;;4.80;96.20;;;4.61;68.28;95479.00;5076262;28;20447;-57
2021/12/14 10:02:25;;;;;;;14.60;9.57;;;4.80;96.40;;;4.67;68.35;95481.25;5078577;28;20477;-59
2021/12/14 10:04:57;;;;;;;13.20;10.03;;;4.90;96.50;;;4.72;68.48;95474.97;5077840;28;20837;-57
2021/12/14 10:07:25;;;;;;;14.00;11.00;;;4.90;96.50;;;4.78;68.39;95478.03;5082792;28;20469;-57
2021/12/14 10:09:54;;;;;;;12.97;8.60;;;5.00;96.60;;;4.85;68.28;95479.38;5083536;28;20594;-58
2021/12/14 10:12:49;;;;;;;12.27;9.20;;;5.00;96.40;;;4.88;67.79;95475.75;5082869;28;20566;-59
2021/12/14 10:15:24;;;;;;;17.00;9.10;;;5.10;96.10;;;4.85;67.47;95473.31;5085941;28;20518;-57
2021/12/14 10:17:53;;;;;;;9.80;7.70;;;5.10;95.80;;;4.79;67.27;95476.28;5083402;28;20442;-57
2021/12/14 10:20:25;;;;;;;14.67;10.57;;;5.00;95.50;;;4.76;67.53;95472.09;5081589;28;20447;-58
2021/12/14 10:22:52;;;;;;;16.40;9.97;;;5.00;95.70;;;4.74;67.41;95470.47;5086643;28;20457;-60
2021/12/14 10:25:22;;;;;;;13.60;9.50;;;4.90;95.60;;;4.72;67.38;95467.13;5083027;28;20533;-57
2021/12/14 10:27:49;;;;;;;14.07;8.70;;;4.90;95.70;;;4.73;67.30;95466.22;5077312;28;20513;-58
2021/12/14 10:30:19;;;;;;;13.10;9.53;;;4.90;95.70;;;4.69;67.42;95468.13;5084684;28;20467;-59
2021/12/14 10:32:47;;;;;;;13.80;8.87;;;4.90;95.70;;;4.66;67.45;95469.19;5083645;28;20513;-57
2021/12/14 10:35:20;;;;;;;14.40;9.63;;;4.90;95.70;;;4.67;67.77;95470.00;5080836;28;20443;-58
2021/12/14 10:37:54;;;;;;;11.57;8.40;;;4.90;95.90;;;4.69;67.71;95460.31;5082473;28;20499;-58
2021/12/14 10:43:16;;;;;;;10.80;8.80;;;4.90;95.90;;;4.69;67.43;95462.09;5077729;28;20449;-58
2021/12/14 10:45:50;;;;;;;12.57;9.20;;;4.90;95.80;;;4.68;67.68;95463.88;5081550;28;20462;-59
2021/12/14 10:48:18;;;;;;;15.97;9.43;;;4.90;95.90;;;4.65;67.79;95456.25;5080655;28;20488;-57
2021/12/14 10:50:47;;;;;;;15.70;9.23;;;4.90;95.90;;;4.63;67.49;95458.94;5079567;28;20471;-57
2021/12/14 10:53:16;;;;;;;14.90;9.80;;;4.90;95.80;;;4.57;67.85;95461.91;5080850;28;20548;-58
2021/12/14 10:55:46;;;;;;;11.13;8.53;;;4.80;95.70;;;4.55;67.64;95461.13;5082247;28;20471;-58
2021/12/14 10:58:15;;;;;;;15.80;11.23;;;4.80;95.70;;;4.54;67.91;95456.88;5081417;28;20442;-55
2021/12/14 11:00:47;;;;;;;16.70;12.07;;;4.70;96.00;;;4.58;67.97;95457.50;5085731;28;20525;-56
2021/12/14 11:03:17;;;;;;;14.43;10.50;;;4.80;96.20;;;4.63;68.11;95452.88;5080425;28;20442;-59